sensor_id;sensor_type;location;lat;lon;timestamp;P1;durP1;ratioP1;P2;durP2;ratioP2
29210;SDS011;16250;49.932;10.980;2023-11-21T00:01:39;6.00;;;3.10;;
29210;SDS011;16250;49.932;10.980;2023-11-21T00:04:05;8.32;;;3.40;;
29210;SDS011;16250;49.932;10.980;2023-11-21T00:06:32;8.05;;;3.75;;
29210;SDS011;16250;49.932;10.980;2023-11-21T00:08:58;7.53;;;3.00;;
29210;SDS011;16250;49.932;10.980;2023-11-21T00:11:23;7.35;;;3.42;;
29210;SDS011;16250;49.932;10.980;2023-11-21T00:13:50;7.95;;;3.58;;
29210;SDS011;16250;49.932;10.980;2023-11-21T00:16:15;8.23;;;3.25;;
29210;SDS011;16250;49.932;10.980;2023-11-21T00:18:41;5.10;;;3.65;;
29210;SDS011;16250;49.932;10.980;2023-11-21T00:21:08;7.85;;;3.28;;
29210;SDS011;16250;49.932;10.980;2023-11-21T00:23:34;6.57;;;3.40;;
29210;SDS011;16250;49.932;10.980;2023-11-21T00:25:59;6.30;;;3.80;;
29210;SDS011;16250;49.932;10.980;2023-11-21T00:28:25;5.90;;;3.40;;
29210;SDS011;16250;49.932;10.980;2023-11-21T00:30:51;7.85;;;3.50;;
29210;SDS011;16250;49.932;10.980;2023-11-21T00:33:16;5.60;;;3.40;;
29210;SDS011;16250;49.932;10.980;2023-11-21T00:35:42;5.53;;;3.00;;
29210;SDS011;16250;49.932;10.980;2023-11-21T00:38:07;6.18;;;3.50;;
29210;SDS011;16250;49.932;10.980;2023-11-21T00:40:33;3.45;;;3.15;;
29210;SDS011;16250;49.932;10.980;2023-11-21T00:43:00;8.07;;;3.83;;
29210;SDS011;16250;49.932;10.980;2023-11-21T00:45:25;5.32;;;3.08;;
29210;SDS011;16250;49.932;10.980;2023-11-21T00:47:51;7.70;;;3.50;;
29210;SDS011;16250;49.932;10.980;2023-11-21T00:50:16;7.65;;;3.50;;
29210;SDS011;16250;49.932;10.980;2023-11-21T00:52:42;5.88;;;3.22;;
29210;SDS011;16250;49.932;10.980;2023-11-21T00:55:07;9.20;;;3.30;;
29210;SDS011;16250;49.932;10.980;2023-11-21T00:57:34;8.88;;;3.35;;
29210;SDS011;16250;49.932;10.980;2023-11-21T00:59:59;8.38;;;3.50;;
29210;SDS011;16250;49.932;10.980;2023-11-21T01:02:25;6.20;;;3.50;;
29210;SDS011;16250;49.932;10.980;2023-11-21T01:04:52;5.70;;;3.22;;
29210;SDS011;16250;49.932;10.980;2023-11-21T01:07:17;7.07;;;3.70;;
29210;SDS011;16250;49.932;10.980;2023-11-21T01:09:45;7.18;;;3.50;;
29210;SDS011;16250;49.932;10.980;2023-11-21T01:12:11;4.47;;;3.20;;
29210;SDS011;16250;49.932;10.980;2023-11-21T01:14:36;6.45;;;3.40;;
29210;SDS011;16250;49.932;10.980;2023-11-21T01:17:02;6.30;;;3.20;;
29210;SDS011;16250;49.932;10.980;2023-11-21T01:19:29;6.50;;;3.30;;
29210;SDS011;16250;49.932;10.980;2023-11-21T01:21:56;5.45;;;3.80;;
29210;SDS011;16250;49.932;10.980;2023-11-21T01:24:23;7.72;;;3.72;;
29210;SDS011;16250;49.932;10.980;2023-11-21T01:26:48;7.20;;;3.63;;
29210;SDS011;16250;49.932;10.980;2023-11-21T01:29:13;6.28;;;3.78;;
29210;SDS011;16250;49.932;10.980;2023-11-21T01:31:40;6.28;;;3.65;;
29210;SDS011;16250;49.932;10.980;2023-11-21T01:34:06;6.47;;;3.97;;
29210;SDS011;16250;49.932;10.980;2023-11-21T01:36:32;11.57;;;3.70;;
29210;SDS011;16250;49.932;10.980;2023-11-21T01:38:58;5.28;;;3.60;;
29210;SDS011;16250;49.932;10.980;2023-11-21T01:41:27;7.40;;;4.10;;
29210;SDS011;16250;49.932;10.980;2023-11-21T01:43:54;5.63;;;3.65;;
29210;SDS011;16250;49.932;10.980;2023-11-21T01:46:20;6.88;;;3.90;;
29210;SDS011;16250;49.932;10.980;2023-11-21T01:48:46;6.30;;;3.78;;
29210;SDS011;16250;49.932;10.980;2023-11-21T01:51:14;9.45;;;4.32;;
29210;SDS011;16250;49.932;10.980;2023-11-21T01:53:40;5.55;;;3.85;;
29210;SDS011;16250;49.932;10.980;2023-11-21T01:56:06;5.18;;;3.80;;
29210;SDS011;16250;49.932;10.980;2023-11-21T01:58:35;7.18;;;4.10;;
29210;SDS011;16250;49.932;10.980;2023-11-21T02:01:01;6.25;;;3.88;;
29210;SDS011;16250;49.932;10.980;2023-11-21T02:03:27;4.68;;;3.70;;
29210;SDS011;16250;49.932;10.980;2023-11-21T02:05:53;7.43;;;4.28;;
29210;SDS011;16250;49.932;10.980;2023-11-21T02:08:19;5.40;;;3.85;;
29210;SDS011;16250;49.932;10.980;2023-11-21T02:10:45;8.02;;;4.22;;
29210;SDS011;16250;49.932;10.980;2023-11-21T02:13:10;8.60;;;4.07;;
29210;SDS011;16250;49.932;10.980;2023-11-21T02:15:36;6.07;;;4.05;;
29210;SDS011;16250;49.932;10.980;2023-11-21T02:18:03;7.15;;;3.58;;
29210;SDS011;16250;49.932;10.980;2023-11-21T02:20:31;6.57;;;4.05;;
29210;SDS011;16250;49.932;10.980;2023-11-21T02:23:00;7.65;;;4.05;;
29210;SDS011;16250;49.932;10.980;2023-11-21T02:25:26;6.30;;;4.20;;
29210;SDS011;16250;49.932;10.980;2023-11-21T02:27:56;11.00;;;4.32;;
29210;SDS011;16250;49.932;10.980;2023-11-21T02:30:22;8.10;;;4.05;;
29210;SDS011;16250;49.932;10.980;2023-11-21T02:32:51;9.82;;;4.95;;
29210;SDS011;16250;49.932;10.980;2023-11-21T02:35:22;6.30;;;4.15;;
29210;SDS011;16250;49.932;10.980;2023-11-21T02:37:48;5.15;;;3.60;;
29210;SDS011;16250;49.932;10.980;2023-11-21T02:40:15;6.85;;;3.95;;
29210;SDS011;16250;49.932;10.980;2023-11-21T02:42:45;6.25;;;4.20;;
29210;SDS011;16250;49.932;10.980;2023-11-21T02:45:15;7.47;;;4.22;;
29210;SDS011;16250;49.932;10.980;2023-11-21T02:47:42;7.60;;;4.72;;
29210;SDS011;16250;49.932;10.980;2023-11-21T02:50:10;5.40;;;4.25;;
29210;SDS011;16250;49.932;10.980;2023-11-21T02:52:36;8.63;;;4.75;;
29210;SDS011;16250;49.932;10.980;2023-11-21T02:55:02;7.38;;;4.32;;
29210;SDS011;16250;49.932;10.980;2023-11-21T02:57:28;7.72;;;4.28;;
29210;SDS011;16250;49.932;10.980;2023-11-21T02:59:53;8.15;;;4.13;;
29210;SDS011;16250;49.932;10.980;2023-11-21T03:02:19;8.48;;;4.00;;
29210;SDS011;16250;49.932;10.980;2023-11-21T03:04:45;6.30;;;4.20;;
29210;SDS011;16250;49.932;10.980;2023-11-21T03:07:10;7.40;;;3.63;;
29210;SDS011;16250;49.932;10.980;2023-11-21T03:09:36;5.65;;;4.10;;
29210;SDS011;16250;49.932;10.980;2023-11-21T03:12:01;6.38;;;3.90;;
29210;SDS011;16250;49.932;10.980;2023-11-21T03:14:27;7.47;;;4.00;;
29210;SDS011;16250;49.932;10.980;2023-11-21T03:16:52;8.20;;;4.72;;
29210;SDS011;16250;49.932;10.980;2023-11-21T03:19:18;9.20;;;4.97;;
29210;SDS011;16250;49.932;10.980;2023-11-21T03:21:43;10.40;;;5.40;;
29210;SDS011;16250;49.932;10.980;2023-11-21T03:24:08;8.13;;;4.97;;
29210;SDS011;16250;49.932;10.980;2023-11-21T03:26:34;10.25;;;5.28;;
29210;SDS011;16250;49.932;10.980;2023-11-21T03:28:59;9.90;;;5.30;;
29210;SDS011;16250;49.932;10.980;2023-11-21T03:31:25;8.77;;;5.63;;
29210;SDS011;16250;49.932;10.980;2023-11-21T03:33:51;8.43;;;5.78;;
29210;SDS011;16250;49.932;10.980;2023-11-21T03:36:19;7.53;;;5.32;;
29210;SDS011;16250;49.932;10.980;2023-11-21T03:38:45;7.85;;;5.30;;
29210;SDS011;16250;49.932;10.980;2023-11-21T03:41:10;8.85;;;5.85;;
29210;SDS011;16250;49.932;10.980;2023-11-21T03:43:38;9.75;;;6.05;;
29210;SDS011;16250;49.932;10.980;2023-11-21T03:46:04;7.35;;;5.25;;
29210;SDS011;16250;49.932;10.980;2023-11-21T03:48:30;6.75;;;4.80;;
29210;SDS011;16250;49.932;10.980;2023-11-21T03:50:55;9.15;;;4.32;;
29210;SDS011;16250;49.932;10.980;2023-11-21T03:53:20;8.73;;;5.80;;
29210;SDS011;16250;49.932;10.980;2023-11-21T03:55:46;9.68;;;7.15;;
29210;SDS011;16250;49.932;10.980;2023-11-21T03:58:11;7.35;;;5.93;;
29210;SDS011;16250;49.932;10.980;2023-11-21T04:00:37;7.45;;;5.82;;
29210;SDS011;16250;49.932;10.980;2023-11-21T04:03:03;9.07;;;6.07;;
29210;SDS011;16250;49.932;10.980;2023-11-21T04:05:28;9.18;;;5.90;;
29210;SDS011;16250;49.932;10.980;2023-11-21T04:07:54;8.30;;;6.00;;
29210;SDS011;16250;49.932;10.980;2023-11-21T04:10:19;10.15;;;5.63;;
29210;SDS011;16250;49.932;10.980;2023-11-21T04:12:44;7.57;;;4.97;;
29210;SDS011;16250;49.932;10.980;2023-11-21T04:15:10;8.93;;;6.18;;
29210;SDS011;16250;49.932;10.980;2023-11-21T04:17:37;10.65;;;6.07;;
29210;SDS011;16250;49.932;10.980;2023-11-21T04:20:03;11.80;;;6.40;;
29210;SDS011;16250;49.932;10.980;2023-11-21T04:22:36;11.40;;;6.28;;
29210;SDS011;16250;49.932;10.980;2023-11-21T04:25:01;8.98;;;7.18;;
29210;SDS011;16250;49.932;10.980;2023-11-21T04:27:27;9.35;;;6.40;;
29210;SDS011;16250;49.932;10.980;2023-11-21T04:29:52;9.15;;;6.40;;
29210;SDS011;16250;49.932;10.980;2023-11-21T04:32:18;8.55;;;6.22;;
29210;SDS011;16250;49.932;10.980;2023-11-21T04:34:43;9.52;;;6.32;;
29210;SDS011;16250;49.932;10.980;2023-11-21T04:37:09;8.90;;;6.70;;
29210;SDS011;16250;49.932;10.980;2023-11-21T04:39:35;10.40;;;6.97;;
29210;SDS011;16250;49.932;10.980;2023-11-21T04:42:01;11.20;;;7.32;;
29210;SDS011;16250;49.932;10.980;2023-11-21T04:44:26;10.85;;;7.70;;
29210;SDS011;16250;49.932;10.980;2023-11-21T04:46:51;12.38;;;8.43;;
29210;SDS011;16250;49.932;10.980;2023-11-21T04:49:17;11.07;;;8.52;;
29210;SDS011;16250;49.932;10.980;2023-11-21T04:51:42;12.60;;;9.52;;
29210;SDS011;16250;49.932;10.980;2023-11-21T04:54:08;10.95;;;8.52;;
29210;SDS011;16250;49.932;10.980;2023-11-21T04:56:34;10.13;;;8.75;;
29210;SDS011;16250;49.932;10.980;2023-11-21T04:58:59;12.35;;;8.95;;
29210;SDS011;16250;49.932;10.980;2023-11-21T05:01:25;15.05;;;11.73;;
29210;SDS011;16250;49.932;10.980;2023-11-21T05:03:50;11.25;;;9.75;;
29210;SDS011;16250;49.932;10.980;2023-11-21T05:06:15;11.70;;;9.50;;
29210;SDS011;16250;49.932;10.980;2023-11-21T05:08:41;13.45;;;10.00;;
29210;SDS011;16250;49.932;10.980;2023-11-21T05:11:07;18.23;;;10.00;;
29210;SDS011;16250;49.932;10.980;2023-11-21T05:13:35;15.23;;;10.27;;
29210;SDS011;16250;49.932;10.980;2023-11-21T05:16:01;15.23;;;11.05;;
29210;SDS011;16250;49.932;10.980;2023-11-21T05:18:30;13.45;;;11.60;;
29210;SDS011;16250;49.932;10.980;2023-11-21T05:20:56;13.30;;;10.90;;
29210;SDS011;16250;49.932;10.980;2023-11-21T05:23:21;19.27;;;13.07;;
29210;SDS011;16250;49.932;10.980;2023-11-21T05:25:47;18.90;;;13.05;;
29210;SDS011;16250;49.932;10.980;2023-11-21T05:28:12;14.13;;;11.40;;
29210;SDS011;16250;49.932;10.980;2023-11-21T05:30:38;19.15;;;15.00;;
29210;SDS011;16250;49.932;10.980;2023-11-21T05:33:04;14.48;;;11.00;;
29210;SDS011;16250;49.932;10.980;2023-11-21T05:35:30;14.63;;;10.55;;
29210;SDS011;16250;49.932;10.980;2023-11-21T05:37:56;12.10;;;10.50;;
29210;SDS011;16250;49.932;10.980;2023-11-21T05:40:22;12.20;;;9.95;;
29210;SDS011;16250;49.932;10.980;2023-11-21T05:42:47;14.23;;;10.90;;
29210;SDS011;16250;49.932;10.980;2023-11-21T05:45:13;15.43;;;10.57;;
29210;SDS011;16250;49.932;10.980;2023-11-21T05:47:41;11.85;;;10.57;;
29210;SDS011;16250;49.932;10.980;2023-11-21T05:50:11;12.77;;;10.77;;
29210;SDS011;16250;49.932;10.980;2023-11-21T05:52:40;13.63;;;10.30;;
29210;SDS011;16250;49.932;10.980;2023-11-21T05:55:06;15.00;;;10.63;;
29210;SDS011;16250;49.932;10.980;2023-11-21T05:57:38;18.50;;;11.55;;
29210;SDS011;16250;49.932;10.980;2023-11-21T06:00:05;14.55;;;11.35;;
29210;SDS011;16250;49.932;10.980;2023-11-21T06:02:48;15.20;;;11.00;;
29210;SDS011;16250;49.932;10.980;2023-11-21T06:05:18;14.82;;;12.10;;
29210;SDS011;16250;49.932;10.980;2023-11-21T06:07:44;16.67;;;12.70;;
29210;SDS011;16250;49.932;10.980;2023-11-21T06:10:10;17.48;;;12.77;;
29210;SDS011;16250;49.932;10.980;2023-11-21T06:12:38;20.15;;;14.45;;
29210;SDS011;16250;49.932;10.980;2023-11-21T06:15:05;22.63;;;16.13;;
29210;SDS011;16250;49.932;10.980;2023-11-21T06:17:33;26.30;;;18.90;;
29210;SDS011;16250;49.932;10.980;2023-11-21T06:20:05;29.75;;;23.98;;
29210;SDS011;16250;49.932;10.980;2023-11-21T06:22:40;23.60;;;14.95;;
29210;SDS011;16250;49.932;10.980;2023-11-21T06:25:06;19.33;;;13.35;;
29210;SDS011;16250;49.932;10.980;2023-11-21T06:27:54;16.75;;;12.93;;
29210;SDS011;16250;49.932;10.980;2023-11-21T06:30:19;18.48;;;14.38;;
29210;SDS011;16250;49.932;10.980;2023-11-21T06:32:45;14.32;;;12.30;;
29210;SDS011;16250;49.932;10.980;2023-11-21T06:35:13;17.60;;;11.90;;
29210;SDS011;16250;49.932;10.980;2023-11-21T06:37:38;18.98;;;15.52;;
29210;SDS011;16250;49.932;10.980;2023-11-21T06:40:04;22.45;;;16.60;;
29210;SDS011;16250;49.932;10.980;2023-11-21T06:42:30;26.23;;;19.52;;
29210;SDS011;16250;49.932;10.980;2023-11-21T06:44:55;20.88;;;16.23;;
29210;SDS011;16250;49.932;10.980;2023-11-21T06:47:22;23.83;;;18.13;;
29210;SDS011;16250;49.932;10.980;2023-11-21T06:49:52;18.42;;;12.88;;
29210;SDS011;16250;49.932;10.980;2023-11-21T06:52:18;21.30;;;14.50;;
29210;SDS011;16250;49.932;10.980;2023-11-21T06:54:44;19.25;;;14.00;;
29210;SDS011;16250;49.932;10.980;2023-11-21T06:57:10;36.00;;;26.13;;
29210;SDS011;16250;49.932;10.980;2023-11-21T06:59:35;38.45;;;27.63;;
29210;SDS011;16250;49.932;10.980;2023-11-21T07:02:01;18.58;;;13.05;;
29210;SDS011;16250;49.932;10.980;2023-11-21T07:04:26;14.25;;;10.73;;
29210;SDS011;16250;49.932;10.980;2023-11-21T07:06:53;13.77;;;10.50;;
29210;SDS011;16250;49.932;10.980;2023-11-21T07:09:18;13.77;;;10.15;;
29210;SDS011;16250;49.932;10.980;2023-11-21T07:11:47;18.27;;;11.70;;
29210;SDS011;16250;49.932;10.980;2023-11-21T07:14:13;16.65;;;12.07;;
29210;SDS011;16250;49.932;10.980;2023-11-21T07:16:38;16.25;;;11.85;;
29210;SDS011;16250;49.932;10.980;2023-11-21T07:19:04;14.25;;;12.40;;
29210;SDS011;16250;49.932;10.980;2023-11-21T07:21:35;24.50;;;18.40;;
29210;SDS011;16250;49.932;10.980;2023-11-21T07:24:01;24.85;;;22.23;;
29210;SDS011;16250;49.932;10.980;2023-11-21T07:26:28;19.33;;;16.88;;
29210;SDS011;16250;49.932;10.980;2023-11-21T07:28:54;22.50;;;18.33;;
29210;SDS011;16250;49.932;10.980;2023-11-21T07:31:19;22.85;;;17.80;;
29210;SDS011;16250;49.932;10.980;2023-11-21T07:33:45;18.23;;;16.05;;
29210;SDS011;16250;49.932;10.980;2023-11-21T07:36:17;20.25;;;16.10;;
29210;SDS011;16250;49.932;10.980;2023-11-21T07:38:48;26.63;;;19.17;;
29210;SDS011;16250;49.932;10.980;2023-11-21T07:41:14;28.50;;;20.08;;
29210;SDS011;16250;49.932;10.980;2023-11-21T07:43:42;24.00;;;19.10;;
29210;SDS011;16250;49.932;10.980;2023-11-21T07:46:08;29.08;;;21.05;;
29210;SDS011;16250;49.932;10.980;2023-11-21T07:48:34;27.17;;;19.90;;
29210;SDS011;16250;49.932;10.980;2023-11-21T07:51:00;26.27;;;17.77;;
29210;SDS011;16250;49.932;10.980;2023-11-21T07:53:28;25.58;;;17.25;;
29210;SDS011;16250;49.932;10.980;2023-11-21T07:56:07;23.95;;;17.38;;
29210;SDS011;16250;49.932;10.980;2023-11-21T07:58:34;27.80;;;17.85;;
29210;SDS011;16250;49.932;10.980;2023-11-21T08:01:02;25.75;;;17.58;;
29210;SDS011;16250;49.932;10.980;2023-11-21T08:03:28;23.92;;;16.83;;
29210;SDS011;16250;49.932;10.980;2023-11-21T08:05:55;23.15;;;16.60;;
29210;SDS011;16250;49.932;10.980;2023-11-21T08:08:22;25.25;;;18.30;;
29210;SDS011;16250;49.932;10.980;2023-11-21T08:10:49;21.83;;;16.52;;
29210;SDS011;16250;49.932;10.980;2023-11-21T08:13:24;22.77;;;15.70;;
29210;SDS011;16250;49.932;10.980;2023-11-21T08:15:50;24.35;;;17.05;;
29210;SDS011;16250;49.932;10.980;2023-11-21T08:18:16;27.73;;;18.70;;
29210;SDS011;16250;49.932;10.980;2023-11-21T08:20:44;29.55;;;19.20;;
29210;SDS011;16250;49.932;10.980;2023-11-21T08:23:12;30.75;;;20.15;;
29210;SDS011;16250;49.932;10.980;2023-11-21T08:25:40;26.88;;;19.60;;
29210;SDS011;16250;49.932;10.980;2023-11-21T08:28:07;31.25;;;20.10;;
29210;SDS011;16250;49.932;10.980;2023-11-21T08:30:32;23.75;;;18.33;;
29210;SDS011;16250;49.932;10.980;2023-11-21T08:32:58;28.05;;;19.33;;
29210;SDS011;16250;49.932;10.980;2023-11-21T08:35:24;30.15;;;23.00;;
29210;SDS011;16250;49.932;10.980;2023-11-21T08:37:52;34.13;;;21.20;;
29210;SDS011;16250;49.932;10.980;2023-11-21T08:40:18;27.58;;;20.38;;
29210;SDS011;16250;49.932;10.980;2023-11-21T08:42:45;27.42;;;19.55;;
29210;SDS011;16250;49.932;10.980;2023-11-21T08:45:11;27.05;;;19.48;;
29210;SDS011;16250;49.932;10.980;2023-11-21T08:47:38;26.20;;;20.02;;
29210;SDS011;16250;49.932;10.980;2023-11-21T08:50:04;26.17;;;19.15;;
29210;SDS011;16250;49.932;10.980;2023-11-21T08:52:31;31.75;;;19.58;;
29210;SDS011;16250;49.932;10.980;2023-11-21T08:54:56;26.45;;;20.20;;
29210;SDS011;16250;49.932;10.980;2023-11-21T08:57:22;27.15;;;18.83;;
29210;SDS011;16250;49.932;10.980;2023-11-21T08:59:48;25.23;;;17.08;;
29210;SDS011;16250;49.932;10.980;2023-11-21T09:02:13;20.73;;;16.60;;
29210;SDS011;16250;49.932;10.980;2023-11-21T09:04:38;21.30;;;16.02;;
29210;SDS011;16250;49.932;10.980;2023-11-21T09:07:04;21.63;;;16.88;;
29210;SDS011;16250;49.932;10.980;2023-11-21T09:09:30;20.48;;;16.15;;
29210;SDS011;16250;49.932;10.980;2023-11-21T09:11:55;18.42;;;14.82;;
29210;SDS011;16250;49.932;10.980;2023-11-21T09:14:21;18.35;;;14.65;;
29210;SDS011;16250;49.932;10.980;2023-11-21T09:16:46;15.07;;;12.52;;
29210;SDS011;16250;49.932;10.980;2023-11-21T09:19:12;22.83;;;15.63;;
29210;SDS011;16250;49.932;10.980;2023-11-21T09:21:39;16.70;;;13.95;;
29210;SDS011;16250;49.932;10.980;2023-11-21T09:24:04;14.93;;;12.45;;
29210;SDS011;16250;49.932;10.980;2023-11-21T09:26:30;15.32;;;11.77;;
29210;SDS011;16250;49.932;10.980;2023-11-21T09:28:55;16.35;;;13.15;;
29210;SDS011;16250;49.932;10.980;2023-11-21T09:31:22;13.43;;;10.90;;
29210;SDS011;16250;49.932;10.980;2023-11-21T09:33:48;11.93;;;10.68;;
29210;SDS011;16250;49.932;10.980;2023-11-21T09:36:13;11.75;;;9.95;;
29210;SDS011;16250;49.932;10.980;2023-11-21T09:38:39;10.57;;;9.35;;
29210;SDS011;16250;49.932;10.980;2023-11-21T09:41:06;13.27;;;9.57;;
29210;SDS011;16250;49.932;10.980;2023-11-21T09:43:45;10.02;;;8.63;;
29210;SDS011;16250;49.932;10.980;2023-11-21T09:46:11;9.93;;;8.93;;
29210;SDS011;16250;49.932;10.980;2023-11-21T09:48:41;11.48;;;9.55;;
29210;SDS011;16250;49.932;10.980;2023-11-21T09:51:08;11.73;;;8.82;;
29210;SDS011;16250;49.932;10.980;2023-11-21T09:53:34;13.45;;;9.43;;
29210;SDS011;16250;49.932;10.980;2023-11-21T09:55:59;9.98;;;8.95;;
29210;SDS011;16250;49.932;10.980;2023-11-21T09:58:27;11.23;;;10.13;;
29210;SDS011;16250;49.932;10.980;2023-11-21T10:00:53;10.32;;;8.68;;
29210;SDS011;16250;49.932;10.980;2023-11-21T10:03:21;10.77;;;8.50;;
29210;SDS011;16250;49.932;10.980;2023-11-21T10:05:46;10.35;;;8.10;;
29210;SDS011;16250;49.932;10.980;2023-11-21T10:08:15;18.75;;;14.98;;
29210;SDS011;16250;49.932;10.980;2023-11-21T10:10:44;10.07;;;8.30;;
29210;SDS011;16250;49.932;10.980;2023-11-21T10:13:11;15.35;;;10.95;;
29210;SDS011;16250;49.932;10.980;2023-11-21T10:15:37;11.80;;;9.40;;
29210;SDS011;16250;49.932;10.980;2023-11-21T10:18:03;9.50;;;8.35;;
29210;SDS011;16250;49.932;10.980;2023-11-21T10:20:30;11.52;;;8.45;;
29210;SDS011;16250;49.932;10.980;2023-11-21T10:22:55;15.30;;;10.82;;
29210;SDS011;16250;49.932;10.980;2023-11-21T10:25:23;8.70;;;7.80;;
29210;SDS011;16250;49.932;10.980;2023-11-21T10:27:49;11.60;;;8.05;;
29210;SDS011;16250;49.932;10.980;2023-11-21T10:30:17;8.30;;;7.40;;
29210;SDS011;16250;49.932;10.980;2023-11-21T10:32:43;8.77;;;7.97;;
29210;SDS011;16250;49.932;10.980;2023-11-21T10:35:08;11.65;;;9.35;;
29210;SDS011;16250;49.932;10.980;2023-11-21T10:37:40;9.70;;;8.70;;
29210;SDS011;16250;49.932;10.980;2023-11-21T10:40:09;10.10;;;9.02;;
29210;SDS011;16250;49.932;10.980;2023-11-21T10:42:39;11.63;;;8.60;;
29210;SDS011;16250;49.932;10.980;2023-11-21T10:45:05;11.77;;;8.20;;
29210;SDS011;16250;49.932;10.980;2023-11-21T10:47:39;11.68;;;8.65;;
29210;SDS011;16250;49.932;10.980;2023-11-21T10:50:06;10.70;;;8.45;;
29210;SDS011;16250;49.932;10.980;2023-11-21T10:52:36;9.00;;;7.82;;
29210;SDS011;16250;49.932;10.980;2023-11-21T10:55:15;10.07;;;8.88;;
29210;SDS011;16250;49.932;10.980;2023-11-21T10:57:41;12.20;;;8.30;;
29210;SDS011;16250;49.932;10.980;2023-11-21T11:00:07;9.93;;;8.57;;
29210;SDS011;16250;49.932;10.980;2023-11-21T11:02:33;9.93;;;7.55;;
29210;SDS011;16250;49.932;10.980;2023-11-21T11:04:59;9.77;;;7.57;;
29210;SDS011;16250;49.932;10.980;2023-11-21T11:07:26;7.65;;;6.25;;
29210;SDS011;16250;49.932;10.980;2023-11-21T11:09:55;9.98;;;7.63;;
29210;SDS011;16250;49.932;10.980;2023-11-21T11:12:21;7.85;;;7.10;;
29210;SDS011;16250;49.932;10.980;2023-11-21T11:14:47;8.05;;;6.78;;
29210;SDS011;16250;49.932;10.980;2023-11-21T11:17:13;11.23;;;7.53;;
29210;SDS011;16250;49.932;10.980;2023-11-21T11:19:39;9.07;;;7.13;;
29210;SDS011;16250;49.932;10.980;2023-11-21T11:32:37;7.25;;;6.18;;
29210;SDS011;16250;49.932;10.980;2023-11-21T11:35:15;8.32;;;6.60;;
29210;SDS011;16250;49.932;10.980;2023-11-21T11:37:44;7.00;;;5.78;;
29210;SDS011;16250;49.932;10.980;2023-11-21T11:40:12;8.55;;;5.72;;
29210;SDS011;16250;49.932;10.980;2023-11-21T11:42:38;6.90;;;6.20;;
29210;SDS011;16250;49.932;10.980;2023-11-21T11:45:25;4.65;;;4.13;;
29210;SDS011;16250;49.932;10.980;2023-11-21T11:47:56;6.13;;;4.90;;
29210;SDS011;16250;49.932;10.980;2023-11-21T11:50:21;5.53;;;4.50;;
29210;SDS011;16250;49.932;10.980;2023-11-21T11:52:47;7.28;;;4.47;;
29210;SDS011;16250;49.932;10.980;2023-11-21T11:55:19;7.05;;;4.88;;
29210;SDS011;16250;49.932;10.980;2023-11-21T11:57:46;7.72;;;4.97;;
29210;SDS011;16250;49.932;10.980;2023-11-21T12:00:23;6.15;;;4.70;;
29210;SDS011;16250;49.932;10.980;2023-11-21T12:03:02;6.78;;;5.18;;
29210;SDS011;16250;49.932;10.980;2023-11-21T12:05:29;7.85;;;5.13;;
29210;SDS011;16250;49.932;10.980;2023-11-21T12:08:06;7.88;;;5.35;;
29210;SDS011;16250;49.932;10.980;2023-11-21T12:10:33;7.15;;;5.10;;
29210;SDS011;16250;49.932;10.980;2023-11-21T12:13:03;5.68;;;4.50;;
29210;SDS011;16250;49.932;10.980;2023-11-21T12:15:32;8.95;;;4.50;;
29210;SDS011;16250;49.932;10.980;2023-11-21T12:17:58;5.88;;;4.47;;
29210;SDS011;16250;49.932;10.980;2023-11-21T12:20:24;6.93;;;4.53;;
29210;SDS011;16250;49.932;10.980;2023-11-21T12:22:54;6.22;;;4.65;;
29210;SDS011;16250;49.932;10.980;2023-11-21T12:25:30;6.55;;;4.10;;
29210;SDS011;16250;49.932;10.980;2023-11-21T12:27:57;5.90;;;4.40;;
29210;SDS011;16250;49.932;10.980;2023-11-21T12:30:30;7.55;;;4.60;;
29210;SDS011;16250;49.932;10.980;2023-11-21T12:32:57;5.53;;;4.05;;
29210;SDS011;16250;49.932;10.980;2023-11-21T12:35:27;6.55;;;4.10;;
29210;SDS011;16250;49.932;10.980;2023-11-21T12:37:59;6.43;;;5.07;;
29210;SDS011;16250;49.932;10.980;2023-11-21T12:40:24;8.32;;;4.78;;
29210;SDS011;16250;49.932;10.980;2023-11-21T12:42:55;7.97;;;4.65;;
29210;SDS011;16250;49.932;10.980;2023-11-21T12:45:22;6.63;;;4.63;;
29210;SDS011;16250;49.932;10.980;2023-11-21T12:47:51;6.70;;;3.92;;
29210;SDS011;16250;49.932;10.980;2023-11-21T12:50:20;5.70;;;4.15;;
29210;SDS011;16250;49.932;10.980;2023-11-21T12:52:49;5.63;;;4.20;;
29210;SDS011;16250;49.932;10.980;2023-11-21T12:55:21;8.32;;;4.10;;
29210;SDS011;16250;49.932;10.980;2023-11-21T12:57:51;7.07;;;3.72;;
29210;SDS011;16250;49.932;10.980;2023-11-21T13:00:19;6.38;;;3.33;;
29210;SDS011;16250;49.932;10.980;2023-11-21T13:02:55;6.38;;;3.70;;
29210;SDS011;16250;49.932;10.980;2023-11-21T13:05:32;5.97;;;3.40;;
29210;SDS011;16250;49.932;10.980;2023-11-21T13:07:59;5.53;;;3.50;;
29210;SDS011;16250;49.932;10.980;2023-11-21T13:10:32;7.63;;;3.67;;
29210;SDS011;16250;49.932;10.980;2023-11-21T13:13:01;7.40;;;3.70;;
29210;SDS011;16250;49.932;10.980;2023-11-21T13:15:30;8.02;;;3.50;;
29210;SDS011;16250;49.932;10.980;2023-11-21T13:18:00;5.57;;;3.50;;
29210;SDS011;16250;49.932;10.980;2023-11-21T13:20:26;6.50;;;3.47;;
29210;SDS011;16250;49.932;10.980;2023-11-21T13:22:52;5.15;;;3.50;;
29210;SDS011;16250;49.932;10.980;2023-11-21T13:25:29;7.47;;;3.38;;
29210;SDS011;16250;49.932;10.980;2023-11-21T13:27:54;7.47;;;3.63;;
29210;SDS011;16250;49.932;10.980;2023-11-21T13:30:20;5.47;;;3.35;;
29210;SDS011;16250;49.932;10.980;2023-11-21T13:32:51;7.63;;;4.15;;
29210;SDS011;16250;49.932;10.980;2023-11-21T13:35:17;8.82;;;4.72;;
29210;SDS011;16250;49.932;10.980;2023-11-21T13:37:51;8.45;;;5.25;;
29210;SDS011;16250;49.932;10.980;2023-11-21T13:40:20;8.00;;;4.40;;
29210;SDS011;16250;49.932;10.980;2023-11-21T13:42:50;5.05;;;3.63;;
29210;SDS011;16250;49.932;10.980;2023-11-21T13:45:18;6.85;;;3.45;;
29210;SDS011;16250;49.932;10.980;2023-11-21T13:47:46;10.40;;;4.03;;
29210;SDS011;16250;49.932;10.980;2023-11-21T13:50:12;9.20;;;3.92;;
29210;SDS011;16250;49.932;10.980;2023-11-21T13:52:42;5.55;;;3.45;;
29210;SDS011;16250;49.932;10.980;2023-11-21T13:55:10;8.00;;;3.50;;
29210;SDS011;16250;49.932;10.980;2023-11-21T13:57:41;10.07;;;3.88;;
29210;SDS011;16250;49.932;10.980;2023-11-21T14:00:15;6.90;;;3.40;;
29210;SDS011;16250;49.932;10.980;2023-11-21T14:02:59;7.60;;;3.53;;
29210;SDS011;16250;49.932;10.980;2023-11-21T14:05:28;10.07;;;3.95;;
29210;SDS011;16250;49.932;10.980;2023-11-21T14:07:54;7.15;;;3.50;;
29210;SDS011;16250;49.932;10.980;2023-11-21T14:10:21;11.52;;;3.97;;
29210;SDS011;16250;49.932;10.980;2023-11-21T14:12:49;7.85;;;3.70;;
29210;SDS011;16250;49.932;10.980;2023-11-21T14:15:15;10.73;;;3.53;;
29210;SDS011;16250;49.932;10.980;2023-11-21T14:17:44;9.60;;;3.85;;
29210;SDS011;16250;49.932;10.980;2023-11-21T14:20:09;8.50;;;3.95;;
29210;SDS011;16250;49.932;10.980;2023-11-21T14:22:41;7.93;;;4.50;;
29210;SDS011;16250;49.932;10.980;2023-11-21T14:25:06;6.53;;;4.15;;
29210;SDS011;16250;49.932;10.980;2023-11-21T14:27:32;9.45;;;4.00;;
29210;SDS011;16250;49.932;10.980;2023-11-21T14:29:58;6.20;;;4.35;;
29210;SDS011;16250;49.932;10.980;2023-11-21T14:32:24;8.65;;;4.40;;
29210;SDS011;16250;49.932;10.980;2023-11-21T14:34:51;8.63;;;4.43;;